Terminal Aerodrome Forecast
Issued by NWS

Home | Current Version | Previous Version | Graphics & Text | Print | Product List | Glossary On
Versions: 1 2 3 4 5 6 7 8 9 10 11 12 13 14 15 16 17
889
FTUS43 KMPX 222320
TAFRWF
TAF
KRWF 222320Z 2300/2324 19017G24KT P6SM SKC
     FM230900 18014KT P6SM SKC WS020/21050KT
     FM231430 19015G23KT P6SM SKC
     FM231900 18018G26KT P6SM SCT250=

USA.gov is the U.S. government's official web portal to all federal, state and local government web resources and services.